Time;durP1;ratioP1;P1;durP2;ratioP2;P2;SDS_P1;SDS_P2;PMS_P1;PMS_P2;Temp;Humidity;BMP_temperature;BMP_pressure;BME280_temperature;BME280_humidity;BME280_pressure;Samples;Min_cycle;Max_cycle;Signal;HPM_P1;HPM_P2
2023/10/31 00:01:15;;;;;;;1999.90;999.90;;;11.90;99.90;;;;;;5115026;28;20842;-70
2023/10/31 00:03:42;;;;;;;1999.90;999.90;;;11.90;99.90;;;;;;5114884;28;20028;-71
2023/10/31 00:06:08;;;;;;;1999.90;999.90;;;11.90;99.90;;;;;;5114623;27;20039;-72
2023/10/31 00:08:33;;;;;;;1999.90;999.90;;;11.90;99.90;;;;;;5114831;28;20039;-70
2023/10/31 00:10:59;;;;;;;1999.90;999.90;;;11.90;99.90;;;;;;5114820;28;20063;-70
2023/10/31 00:13:24;;;;;;;1999.90;999.90;;;11.90;99.90;;;;;;5114667;28;20528;-71
2023/10/31 00:15:50;;;;;;;1999.90;999.90;;;11.90;99.90;;;;;;5114098;28;20036;-70
2023/10/31 00:18:16;;;;;;;1999.90;999.90;;;11.80;99.90;;;;;;5114693;28;20501;-70
2023/10/31 00:20:41;;;;;;;1999.90;999.90;;;11.80;99.90;;;;;;5114610;28;20074;-72
2023/10/31 00:23:07;;;;;;;1999.90;999.90;;;11.90;99.90;;;;;;5114823;28;20543;-70
2023/10/31 00:25:32;;;;;;;1999.90;999.90;;;12.10;99.90;;;;;;5114334;28;20044;-70
2023/10/31 00:27:58;;;;;;;1999.90;999.90;;;11.80;99.90;;;;;;5114154;28;20398;-72
2023/10/31 00:30:23;;;;;;;1999.90;999.90;;;11.80;99.90;;;;;;5114573;28;20477;-70
2023/10/31 00:32:49;;;;;;;1999.90;999.90;;;11.70;99.90;;;;;;5113072;28;20478;-71
2023/10/31 00:35:14;;;;;;;1999.90;999.90;;;11.70;99.90;;;;;;5114186;27;20508;-72
2023/10/31 00:37:40;;;;;;;1999.90;999.90;;;11.70;99.90;;;;;;5116816;28;20409;-70
2023/10/31 00:40:07;;;;;;;1999.90;999.90;;;11.50;99.90;;;;;;5118089;27;20036;-70
2023/10/31 00:42:32;;;;;;;1999.90;999.90;;;11.50;99.90;;;;;;5117865;28;20169;-70
2023/10/31 00:44:59;;;;;;;1999.90;999.90;;;11.40;99.90;;;;;;5117803;28;20119;-70
2023/10/31 00:47:24;;;;;;;1999.90;999.90;;;11.40;99.90;;;;;;5117690;27;20032;-70
2023/10/31 00:49:52;;;;;;;1999.90;999.90;;;11.30;99.90;;;;;;5117877;28;20032;-71
2023/10/31 00:52:18;;;;;;;1999.90;999.90;;;11.30;99.90;;;;;;5117890;27;20473;-71
2023/10/31 00:54:44;;;;;;;1999.90;999.90;;;11.20;99.90;;;;;;5117315;28;20036;-70
2023/10/31 00:57:09;;;;;;;1999.90;999.90;;;11.20;99.90;;;;;;5117524;28;20032;-70
2023/10/31 00:59:35;;;;;;;1999.90;999.90;;;11.10;99.90;;;;;;5117723;28;20359;-71
2023/10/31 01:02:00;;;;;;;1999.90;999.90;;;11.10;99.90;;;;;;5117717;28;20040;-72
2023/10/31 01:04:26;;;;;;;1999.90;999.90;;;11.10;99.90;;;;;;5117508;28;20827;-70
2023/10/31 01:06:51;;;;;;;1999.90;999.90;;;11.10;99.90;;;;;;5117416;28;20500;-70
2023/10/31 01:09:17;;;;;;;1999.90;999.90;;;11.00;99.90;;;;;;5117314;28;20032;-72
2023/10/31 01:11:43;;;;;;;1999.90;999.90;;;11.00;99.90;;;;;;5117700;28;20051;-70
2023/10/31 01:14:08;;;;;;;1999.90;999.90;;;10.90;99.90;;;;;;5117315;28;20036;-70
2023/10/31 01:16:34;;;;;;;1999.90;999.90;;;10.90;99.90;;;;;;5117168;28;20043;-72
2023/10/31 01:18:59;;;;;;;1999.90;999.90;;;10.80;99.90;;;;;;5117294;28;20693;-70
2023/10/31 01:21:25;;;;;;;1999.90;999.90;;;10.70;99.90;;;;;;5117212;28;20036;-69
2023/10/31 01:23:50;;;;;;;1999.90;999.90;;;10.60;99.90;;;;;;5117082;28;20111;-71
2023/10/31 01:26:16;;;;;;;1999.90;999.90;;;10.50;99.90;;;;;;5117095;28;20521;-70
2023/10/31 01:28:41;;;;;;;1999.90;999.90;;;10.50;99.90;;;;;;5117093;28;20432;-70
2023/10/31 01:31:08;;;;;;;1999.90;999.90;;;10.50;99.90;;;;;;5117077;28;20032;-71
2023/10/31 01:33:34;;;;;;;1999.90;999.90;;;10.40;99.90;;;;;;5117201;27;20036;-70
2023/10/31 01:35:59;;;;;;;1999.90;999.90;;;10.50;99.90;;;;;;5116098;28;20043;-71
2023/10/31 01:38:25;;;;;;;1999.90;999.90;;;10.30;99.90;;;;;;5116828;28;20111;-70
2023/10/31 01:40:50;;;;;;;1999.90;999.90;;;10.20;99.90;;;;;;5117165;28;20047;-70
2023/10/31 01:43:32;;;;;;;1999.90;999.90;;;10.20;99.90;;;;;;5117057;28;20539;-70
2023/10/31 01:45:58;;;;;;;1999.90;999.90;;;10.10;99.90;;;;;;5116681;27;20103;-70
2023/10/31 01:48:26;;;;;;;1999.90;999.90;;;10.00;99.90;;;;;;5115230;28;20211;-70
2023/10/31 01:50:51;;;;;;;1999.90;999.90;;;10.00;99.90;;;;;;5116947;27;20046;-69
2023/10/31 01:53:18;;;;;;;1999.90;999.90;;;10.00;99.90;;;;;;5116737;28;20035;-69
2023/10/31 01:55:46;;;;;;;1999.90;999.90;;;10.00;99.90;;;;;;5116151;27;20559;-70
2023/10/31 01:58:12;;;;;;;1999.90;999.90;;;10.10;99.90;;;;;;5116764;27;20032;-70
2023/10/31 02:00:43;;;;;;;1999.90;999.90;;;10.10;99.90;;;;;;5116644;28;20032;-70
2023/10/31 02:03:09;;;;;;;1999.90;999.90;;;10.10;99.90;;;;;;5116657;27;20089;-70
2023/10/31 02:05:35;;;;;;;1999.90;999.90;;;10.10;99.90;;;;;;5115115;28;20081;-70
2023/10/31 02:08:01;;;;;;;1999.90;999.90;;;10.10;99.90;;;;;;5116041;28;20032;-70
2023/10/31 02:10:27;;;;;;;1999.90;999.90;;;10.10;99.90;;;;;;5116442;27;20024;-70
2023/10/31 02:12:52;;;;;;;1999.90;999.90;;;10.10;99.90;;;;;;5116350;28;20039;-72
2023/10/31 02:15:18;;;;;;;1999.90;999.90;;;10.00;99.90;;;;;;5115973;27;20117;-69
2023/10/31 02:17:43;;;;;;;1999.90;999.90;;;10.00;99.90;;;;;;5116104;28;20485;-69
2023/10/31 02:20:09;;;;;;;1999.90;999.90;;;10.00;99.90;;;;;;5116320;28;20077;-71
2023/10/31 02:22:35;;;;;;;1999.90;999.90;;;10.00;99.90;;;;;;5116325;27;20028;-72
2023/10/31 02:25:01;;;;;;;1999.90;999.90;;;10.10;99.90;;;;;;5116257;28;20036;-70
2023/10/31 02:27:26;;;;;;;1999.90;999.90;;;10.10;99.90;;;;;;5116072;28;20042;-70
2023/10/31 02:29:52;;;;;;;1999.90;999.90;;;10.00;99.90;;;;;;5116343;28;20392;-71
2023/10/31 02:32:17;;;;;;;1999.90;999.90;;;10.10;99.90;;;;;;5116252;28;20050;-70
2023/10/31 02:34:45;;;;;;;1999.90;999.90;;;10.00;99.90;;;;;;5116080;28;20040;-70
2023/10/31 02:37:10;;;;;;;1999.90;999.90;;;10.00;99.90;;;;;;5115581;27;20042;-71
2023/10/31 02:39:37;;;;;;;1999.90;999.90;;;10.00;99.90;;;;;;5115918;28;20035;-69
2023/10/31 02:42:03;;;;;;;1999.90;999.90;;;10.00;99.90;;;;;;5115974;28;20701;-70
2023/10/31 02:44:28;;;;;;;1999.90;999.90;;;10.00;99.90;;;;;;5115576;27;20043;-70
2023/10/31 02:46:54;;;;;;;1999.90;999.90;;;9.90;99.90;;;;;;5115253;28;20082;-70
2023/10/31 02:49:19;;;;;;;1999.90;999.90;;;9.90;99.90;;;;;;5116003;28;20028;-70
2023/10/31 02:51:45;;;;;;;1999.90;999.90;;;9.90;99.90;;;;;;5115861;28;20032;-69
2023/10/31 02:54:11;;;;;;;1999.90;999.90;;;9.90;99.90;;;;;;5115149;28;20039;-70
2023/10/31 02:56:37;;;;;;;1999.90;999.90;;;9.90;99.90;;;;;;5115425;28;20470;-70
2023/10/31 02:59:02;;;;;;;1999.90;999.90;;;9.80;99.90;;;;;;5115139;27;20035;-70
2023/10/31 03:01:29;;;;;;;1999.90;999.90;;;9.80;99.90;;;;;;5115822;28;20062;-69
2023/10/31 03:03:55;;;;;;;1999.90;999.90;;;9.80;99.90;;;;;;5115432;27;20474;-72
2023/10/31 03:06:21;;;;;;;1999.90;999.90;;;9.70;99.90;;;;;;5115357;27;20039;-70
2023/10/31 03:08:47;;;;;;;1999.90;999.90;;;9.70;99.90;;;;;;5114242;28;20039;-69
2023/10/31 03:11:23;;;;;;;1999.90;999.90;;;9.80;99.90;;;;;;5115456;28;20036;-70
2023/10/31 03:13:50;;;;;;;1999.90;999.90;;;9.80;99.90;;;;;;5115407;27;20032;-70
2023/10/31 03:16:16;;;;;;;1999.90;999.90;;;9.80;99.90;;;;;;5115281;27;20028;-69
2023/10/31 03:18:41;;;;;;;1999.90;999.90;;;9.80;99.90;;;;;;5115745;27;20036;-70
2023/10/31 03:21:07;;;;;;;1999.90;999.90;;;9.80;99.90;;;;;;5115305;28;20091;-70
2023/10/31 03:23:33;;;;;;;1999.90;999.90;;;9.80;99.90;;;;;;5115221;28;20040;-70
2023/10/31 03:25:58;;;;;;;1999.90;999.90;;;9.70;99.90;;;;;;5114784;27;20032;-70
2023/10/31 03:28:24;;;;;;;1999.90;999.90;;;9.70;99.90;;;;;;5115493;28;20071;-69
2023/10/31 03:30:50;;;;;;;1999.90;999.90;;;9.70;99.90;;;;;;5115373;27;20042;-70
2023/10/31 03:33:16;;;;;;;1999.90;999.90;;;9.70;99.90;;;;;;5115437;27;20060;-69
2023/10/31 03:35:43;;;;;;;1999.90;999.90;;;9.70;99.90;;;;;;5114867;27;20572;-73
2023/10/31 03:38:08;;;;;;;1999.90;999.90;;;9.60;99.90;;;;;;5115415;27;20469;-69
2023/10/31 03:40:34;;;;;;;1999.90;999.90;;;9.60;99.90;;;;;;5115232;28;20040;-70
2023/10/31 03:42:59;;;;;;;1999.90;999.90;;;9.70;99.90;;;;;;5115241;28;20066;-70
2023/10/31 03:45:25;;;;;;;1999.90;999.90;;;9.70;99.90;;;;;;5114945;28;20145;-70
2023/10/31 03:47:50;;;;;;;1999.90;999.90;;;9.60;99.90;;;;;;5114842;28;20036;-70
2023/10/31 03:50:16;;;;;;;1999.90;999.90;;;9.60;99.90;;;;;;5115118;28;20516;-70
2023/10/31 03:52:41;;;;;;;1999.90;999.90;;;9.60;99.90;;;;;;5115205;28;20032;-70
2023/10/31 03:55:08;;;;;;;1999.90;999.90;;;9.50;99.90;;;;;;5129631;22;20048;-72
2023/10/31 03:57:33;;;;;;;1999.90;999.90;;;9.50;99.90;;;;;;5113220;28;20048;-72
2023/10/31 03:59:59;;;;;;;1999.90;999.90;;;9.50;99.90;;;;;;5114728;28;20035;-73
2023/10/31 04:02:24;;;;;;;1999.90;999.90;;;9.60;99.90;;;;;;5113394;28;20032;-72
2023/10/31 04:04:50;;;;;;;1999.90;999.90;;;9.60;99.90;;;;;;5114163;28;20111;-72
2023/10/31 04:07:15;;;;;;;1999.90;999.90;;;9.70;99.90;;;;;;5114859;27;20115;-72
2023/10/31 04:09:41;;;;;;;1999.90;999.90;;;9.70;99.90;;;;;;5113438;27;20074;-72
2023/10/31 04:12:07;;;;;;;1999.90;999.90;;;9.70;99.90;;;;;;5116728;27;20089;-72
2023/10/31 04:14:33;;;;;;;1999.90;999.90;;;9.70;99.90;;;;;;5118285;27;20034;-72
2023/10/31 04:16:58;;;;;;;1999.90;999.90;;;9.70;99.90;;;;;;5116667;28;20032;-72
2023/10/31 04:19:24;;;;;;;1999.90;999.90;;;9.70;99.90;;;;;;5116782;28;20400;-72
2023/10/31 04:21:49;;;;;;;1999.90;999.90;;;9.60;99.90;;;;;;5118105;27;20038;-72
2023/10/31 04:24:15;;;;;;;1999.90;999.90;;;9.70;99.90;;;;;;5116557;28;20038;-72
2023/10/31 04:26:41;;;;;;;1999.90;999.90;;;9.70;99.90;;;;;;5116591;28;20038;-72
2023/10/31 04:29:06;;;;;;;1999.90;999.90;;;9.70;99.90;;;;;;5118255;27;20024;-72
2023/10/31 04:31:32;;;;;;;1999.90;999.90;;;9.70;99.90;;;;;;5118267;27;20039;-72
2023/10/31 04:33:57;;;;;;;1999.90;999.90;;;9.70;99.90;;;;;;5116728;27;20480;-72
2023/10/31 04:36:23;;;;;;;1999.90;999.90;;;9.70;99.90;;;;;;5116388;28;20468;-72
2023/10/31 04:38:48;;;;;;;1999.90;999.90;;;9.80;99.90;;;;;;5116532;28;20120;-72
2023/10/31 04:41:14;;;;;;;1999.90;999.90;;;9.80;99.90;;;;;;5116456;28;20111;-72
2023/10/31 04:43:41;;;;;;;1999.90;999.90;;;9.80;99.90;;;;;;5117979;27;20059;-72
2023/10/31 04:46:07;;;;;;;1999.90;999.90;;;9.80;99.90;;;;;;5117693;27;20093;-72
2023/10/31 04:48:32;;;;;;;1999.90;999.90;;;9.90;99.90;;;;;;5118026;28;20078;-72
2023/10/31 04:50:58;;;;;;;1999.90;999.90;;;9.90;99.90;;;;;;5117632;27;20089;-72
2023/10/31 04:53:24;;;;;;;1999.90;999.90;;;9.90;99.90;;;;;;5117939;27;20107;-72
2023/10/31 04:55:50;;;;;;;1999.90;999.90;;;9.90;99.90;;;;;;5115360;27;20044;-72
2023/10/31 04:58:15;;;;;;;1999.90;999.90;;;10.00;99.90;;;;;;5117674;27;20478;-72
2023/10/31 05:00:41;;;;;;;1999.90;999.90;;;10.00;99.90;;;;;;5117628;27;20036;-72
2023/10/31 05:03:07;;;;;;;1999.90;999.90;;;10.00;99.90;;;;;;5117553;27;20109;-72
2023/10/31 05:05:32;;;;;;;1999.90;999.90;;;10.00;99.90;;;;;;5116159;28;20027;-72
2023/10/31 05:07:58;;;;;;;1999.90;999.90;;;10.00;99.90;;;;;;5117502;27;20489;-73
2023/10/31 05:10:24;;;;;;;1999.90;999.90;;;10.10;99.90;;;;;;5117628;27;20054;-73
2023/10/31 05:12:50;;;;;;;1999.90;999.90;;;10.10;99.90;;;;;;5117615;27;20032;-72
2023/10/31 05:15:16;;;;;;;1999.90;999.90;;;10.10;99.90;;;;;;5117176;27;20047;-72
2023/10/31 05:17:42;;;;;;;1999.90;999.90;;;10.10;99.90;;;;;;5117332;27;20039;-72
2023/10/31 05:20:09;;;;;;;1999.90;999.90;;;10.10;99.90;;;;;;5117525;27;20036;-72
2023/10/31 05:22:35;;;;;;;1999.90;999.90;;;10.10;99.90;;;;;;5116815;27;20374;-72
2023/10/31 05:25:00;;;;;;;1999.90;999.90;;;10.20;99.90;;;;;;5116980;27;20032;-72
2023/10/31 05:27:26;;;;;;;1999.90;999.90;;;10.20;99.90;;;;;;5117363;27;20382;-72
2023/10/31 05:29:51;;;;;;;1999.90;999.90;;;10.10;99.90;;;;;;5117401;27;20040;-72
2023/10/31 05:32:17;;;;;;;1999.90;999.90;;;10.20;99.90;;;;;;5115765;27;20465;-72
2023/10/31 05:34:42;;;;;;;1999.90;999.90;;;10.20;99.90;;;;;;5117136;27;20504;-72
2023/10/31 05:37:08;;;;;;;1999.90;999.90;;;10.20;99.90;;;;;;5117056;27;20040;-72
2023/10/31 05:39:36;;;;;;;1999.90;999.90;;;10.20;99.90;;;;;;5117293;27;20036;-72
2023/10/31 05:42:02;;;;;;;1999.90;999.90;;;10.20;99.90;;;;;;5117064;27;20035;-72
2023/10/31 05:44:28;;;;;;;1999.90;999.90;;;10.20;99.90;;;;;;5116408;27;20028;-76
2023/10/31 05:46:54;;;;;;;1999.90;999.90;;;10.20;99.90;;;;;;5116972;27;20400;-72
2023/10/31 05:49:20;;;;;;;1999.90;999.90;;;10.20;99.90;;;;;;5117390;27;20078;-72
2023/10/31 05:51:52;;;;;;;1999.90;999.90;;;10.30;99.90;;;;;;5117246;28;20103;-72
2023/10/31 05:54:18;;;;;;;1999.90;999.90;;;10.20;99.90;;;;;;5116293;27;20164;-72
2023/10/31 05:56:44;;;;;;;1999.90;999.90;;;10.20;99.90;;;;;;5116778;27;20526;-72
2023/10/31 05:59:11;;;;;;;1999.90;999.90;;;10.20;99.90;;;;;;5115375;28;20035;-72
2023/10/31 06:01:36;;;;;;;1999.90;999.90;;;10.20;99.90;;;;;;5115127;27;20036;-72
2023/10/31 06:04:02;;;;;;;1999.90;999.90;;;10.20;99.90;;;;;;5116720;27;20385;-72
2023/10/31 06:06:28;;;;;;;1999.90;999.90;;;10.20;99.90;;;;;;5116671;27;20493;-72
2023/10/31 06:08:53;;;;;;;1999.90;999.90;;;10.20;99.90;;;;;;5116757;27;20541;-72
2023/10/31 06:11:19;;;;;;;1999.90;999.90;;;10.20;99.90;;;;;;5116706;27;20485;-72
2023/10/31 06:13:44;;;;;;;1999.90;999.90;;;10.20;99.90;;;;;;5115175;28;20032;-72
2023/10/31 06:16:10;;;;;;;1999.90;999.90;;;10.20;99.90;;;;;;5116037;27;20048;-72
2023/10/31 06:18:38;;;;;;;1999.90;999.90;;;10.20;99.90;;;;;;5116560;27;20390;-72
2023/10/31 06:21:04;;;;;;;1999.90;999.90;;;10.20;99.90;;;;;;5116377;27;20032;-72
2023/10/31 06:23:29;;;;;;;1999.90;999.90;;;10.30;99.90;;;;;;5110053;27;20485;-72
2023/10/31 06:25:55;;;;;;;1999.90;999.90;;;10.30;99.90;;;;;;5110859;27;20405;-78
2023/10/31 06:28:20;;;;;;;1999.90;999.90;;;10.30;99.90;;;;;;5104518;27;20024;-72
2023/10/31 06:30:46;;;;;;;1999.90;999.90;;;10.30;99.90;;;;;;5100716;28;20054;-71
2023/10/31 06:33:11;;;;;;;1999.90;999.90;;;10.30;99.90;;;;;;5094565;28;20389;-72
2023/10/31 06:35:37;;;;;;;1999.90;999.90;;;10.30;99.90;;;;;;5104904;28;20494;-72
2023/10/31 06:38:03;;;;;;;1999.90;999.90;;;10.30;99.90;;;;;;5115914;27;20028;-72
2023/10/31 06:40:28;;;;;;;1999.90;999.90;;;10.30;99.90;;;;;;5113787;27;20030;-72
2023/10/31 06:42:54;;;;;;;1999.90;999.90;;;10.30;99.90;;;;;;5103300;28;20067;-72
2023/10/31 06:45:19;;;;;;;1999.90;999.90;;;10.30;99.90;;;;;;5103701;28;20060;-72
2023/10/31 06:47:45;;;;;;;1999.90;999.90;;;10.30;99.90;;;;;;5103796;27;20481;-72
2023/10/31 06:50:10;;;;;;;1999.90;999.90;;;10.30;99.90;;;;;;5115526;27;20089;-72
2023/10/31 06:52:36;;;;;;;1999.90;999.90;;;10.30;99.90;;;;;;5106344;27;20043;-72
2023/10/31 06:55:02;;;;;;;1999.90;999.90;;;10.30;99.90;;;;;;5094975;28;20160;-72
2023/10/31 06:57:28;;;;;;;1999.90;999.90;;;10.30;99.90;;;;;;5113089;27;20042;-72
2023/10/31 06:59:53;;;;;;;1999.90;999.90;;;10.30;99.90;;;;;;5113468;27;20028;-72
2023/10/31 07:02:19;;;;;;;1999.90;999.90;;;10.30;99.90;;;;;;5113395;27;20067;-72
2023/10/31 07:04:44;;;;;;;1999.90;999.90;;;10.30;99.90;;;;;;5114395;27;20090;-72
2023/10/31 07:07:10;;;;;;;1999.90;999.90;;;10.40;99.90;;;;;;5092968;28;20094;-72
2023/10/31 07:09:35;;;;;;;1999.90;999.90;;;10.40;99.90;;;;;;5097187;28;20029;-71
2023/10/31 07:12:02;;;;;;;1999.90;999.90;;;10.40;99.90;;;;;;5094997;28;20401;-72
2023/10/31 07:14:27;;;;;;;1999.90;999.90;;;10.50;99.90;;;;;;5093461;28;20510;-72
2023/10/31 07:16:53;;;;;;;1999.90;999.90;;;10.50;99.90;;;;;;5094286;28;20033;-72
2023/10/31 07:19:18;;;;;;;1999.90;999.90;;;10.50;99.90;;;;;;5094964;28;20108;-72
2023/10/31 07:21:44;;;;;;;1999.90;999.90;;;10.50;99.90;;;;;;5094588;28;20040;-72
2023/10/31 07:24:09;;;;;;;1999.90;999.90;;;10.60;99.90;;;;;;5094532;28;20036;-73
2023/10/31 07:26:35;;;;;;;1999.90;999.90;;;10.60;99.90;;;;;;5094639;28;20054;-71
2023/10/31 07:29:01;;;;;;;1999.90;999.90;;;10.60;99.90;;;;;;5096609;28;20085;-70
2023/10/31 07:31:27;;;;;;;1999.90;999.90;;;10.60;99.90;;;;;;5100632;27;20118;-72
2023/10/31 07:33:52;;;;;;;1999.90;999.90;;;10.60;99.90;;;;;;5101365;28;20039;-71
2023/10/31 07:36:18;;;;;;;1999.90;999.90;;;10.60;99.90;;;;;;5109175;28;20094;-71
2023/10/31 07:38:43;;;;;;;1999.90;999.90;;;10.60;99.90;;;;;;5115027;28;20036;-71
2023/10/31 07:41:09;;;;;;;1999.90;999.90;;;10.60;99.90;;;;;;5114890;28;20063;-71
2023/10/31 07:43:35;;;;;;;1999.90;999.90;;;10.70;99.90;;;;;;5113352;28;20607;-71
2023/10/31 07:46:00;;;;;;;1999.90;999.90;;;10.70;99.90;;;;;;5112348;28;20099;-71
2023/10/31 07:48:26;;;;;;;1999.90;999.90;;;10.80;99.90;;;;;;5113383;28;20040;-72
2023/10/31 07:50:51;;;;;;;1999.90;999.90;;;10.90;99.90;;;;;;5114927;28;20039;-71
2023/10/31 07:53:17;;;;;;;1999.90;999.90;;;10.90;99.90;;;;;;5114391;28;20032;-72
2023/10/31 07:55:43;;;;;;;1999.90;999.90;;;10.90;99.90;;;;;;5112665;28;20054;-72
2023/10/31 07:58:09;;;;;;;1999.90;999.90;;;10.90;99.90;;;;;;5114504;28;20028;-72
2023/10/31 08:00:35;;;;;;;1999.90;999.90;;;10.80;99.90;;;;;;5113555;28;20116;-71
2023/10/31 08:03:01;;;;;;;1999.90;999.90;;;10.90;99.90;;;;;;5114903;28;20123;-71
2023/10/31 08:05:27;;;;;;;1999.90;999.90;;;10.90;99.90;;;;;;5114805;28;20561;-71
2023/10/31 08:07:53;;;;;;;1999.90;999.90;;;10.90;99.90;;;;;;5114456;28;20107;-71
2023/10/31 08:10:18;;;;;;;1999.90;999.90;;;11.00;99.90;;;;;;5113466;28;20059;-73
2023/10/31 08:12:44;;;;;;;1999.90;999.90;;;11.00;99.90;;;;;;5114347;28;20059;-75
2023/10/31 08:15:10;;;;;;;1999.90;999.90;;;11.10;99.90;;;;;;5112907;28;20040;-74
2023/10/31 08:17:35;;;;;;;1999.90;999.90;;;11.20;99.90;;;;;;5114040;28;20024;-74
2023/10/31 08:20:03;;;;;;;1999.90;999.90;;;11.20;99.90;;;;;;5115159;27;20509;-75
2023/10/31 08:22:29;;;;;;;1999.90;999.90;;;11.30;99.90;;;;;;5114257;27;20028;-75
2023/10/31 08:24:55;;;;;;;1999.90;999.90;;;11.20;99.90;;;;;;5114336;28;20032;-75
2023/10/31 08:27:21;;;;;;;1999.90;999.90;;;11.30;99.90;;;;;;5102649;28;20055;-74
2023/10/31 08:29:47;;;;;;;1999.90;999.90;;;11.30;99.90;;;;;;5108668;28;20032;-75
2023/10/31 08:32:12;;;;;;;1999.90;999.90;;;11.30;99.90;;;;;;5108314;28;20496;-75
2023/10/31 08:34:38;;;;;;;1999.90;999.90;;;11.20;99.90;;;;;;5110044;28;20044;-75
2023/10/31 08:37:03;;;;;;;1999.90;999.90;;;11.20;99.90;;;;;;5098386;28;20032;-74
2023/10/31 08:39:30;;;;;;;1999.90;999.90;;;11.30;99.90;;;;;;5094184;28;20028;-74
2023/10/31 08:41:57;;;;;;;1999.90;999.90;;;11.40;99.90;;;;;;5094140;28;20032;-75
2023/10/31 08:44:23;;;;;;;1999.90;999.90;;;11.50;99.90;;;;;;5093579;28;20060;-75
2023/10/31 08:46:49;;;;;;;1999.90;999.90;;;11.60;99.90;;;;;;5093402;28;20483;-76
2023/10/31 08:49:15;;;;;;;1999.90;999.90;;;11.60;99.90;;;;;;5093539;28;20040;-74
2023/10/31 08:51:41;;;;;;;1999.90;999.90;;;11.60;99.90;;;;;;5093486;28;20502;-73
2023/10/31 08:54:08;;;;;;;1999.90;999.90;;;11.70;99.90;;;;;;5093487;28;20540;-74
2023/10/31 08:56:34;;;;;;;1999.90;999.90;;;11.70;99.90;;;;;;5091815;28;20052;-74
2023/10/31 08:59:00;;;;;;;1999.90;999.90;;;11.80;99.90;;;;;;5099457;27;20505;-74
2023/10/31 09:01:26;;;;;;;1999.90;999.90;;;11.90;99.90;;;;;;5123628;27;20042;-74
2023/10/31 09:03:52;;;;;;;1999.90;999.90;;;12.00;99.90;;;;;;5135395;27;20047;-73
2023/10/31 09:06:18;;;;;;;1999.90;999.90;;;12.10;99.90;;;;;;5098215;27;20127;-74
2023/10/31 09:08:43;;;;;;;1999.90;999.90;;;12.10;99.90;;;;;;5096638;28;20162;-74
2023/10/31 09:11:09;;;;;;;1999.90;999.90;;;12.20;99.90;;;;;;5096716;28;20677;-74
2023/10/31 09:13:34;;;;;;;1999.90;999.90;;;12.20;99.90;;;;;;5095531;28;20363;-74
2023/10/31 09:16:00;;;;;;;1999.90;999.90;;;12.10;99.90;;;;;;5093723;28;20045;-74
2023/10/31 09:18:26;;;;;;;1999.90;999.90;;;12.20;99.90;;;;;;5097447;28;20028;-74
2023/10/31 09:20:52;;;;;;;1999.90;999.90;;;12.20;99.90;;;;;;5097481;28;20032;-74
2023/10/31 09:23:17;;;;;;;1999.90;999.90;;;12.20;99.90;;;;;;5095787;28;20024;-74
2023/10/31 09:25:46;;;;;;;1999.90;999.90;;;12.30;99.90;;;;;;5095128;28;20028;-75
2023/10/31 09:28:12;;;;;;;1999.90;999.90;;;12.30;99.90;;;;;;5097145;28;20028;-74
2023/10/31 09:30:38;;;;;;;1999.90;999.90;;;12.40;99.90;;;;;;5115702;27;20034;-74
2023/10/31 09:33:03;;;;;;;1999.90;999.90;;;12.40;99.90;;;;;;5115925;28;20118;-74
2023/10/31 09:35:29;;;;;;;1999.90;999.90;;;12.40;99.90;;;;;;5115998;28;20078;-74
2023/10/31 09:37:55;;;;;;;1999.90;999.90;;;12.20;99.90;;;;;;5115441;28;20042;-74
2023/10/31 09:40:21;;;;;;;1999.90;999.90;;;12.20;99.90;;;;;;5115657;28;20473;-74
2023/10/31 09:42:47;;;;;;;1999.90;999.90;;;12.30;99.90;;;;;;5117164;28;20028;-74
2023/10/31 09:45:13;;;;;;;1999.90;999.90;;;12.40;99.90;;;;;;5117074;28;20448;-74
2023/10/31 09:47:40;;;;;;;1999.90;999.90;;;12.50;99.90;;;;;;5116644;27;20028;-74
2023/10/31 09:50:08;;;;;;;1999.90;999.90;;;12.40;99.90;;;;;;5117142;27;20476;-73
2023/10/31 09:52:35;;;;;;;1999.90;999.90;;;12.40;99.90;;;;;;5116851;27;20057;-74
2023/10/31 09:55:02;;;;;;;1999.90;999.90;;;12.40;99.90;;;;;;5116037;27;20036;-73
2023/10/31 09:57:28;;;;;;;1999.90;999.90;;;12.40;99.90;;;;;;5116628;27;20036;-74
2023/10/31 09:59:54;;;;;;;1999.90;999.90;;;12.30;99.90;;;;;;5116522;27;20051;-74
2023/10/31 10:02:19;;;;;;;1999.90;999.90;;;12.30;99.90;;;;;;5117043;27;20498;-74
2023/10/31 10:04:45;;;;;;;1999.90;999.90;;;12.40;99.90;;;;;;5116458;27;20020;-74
2023/10/31 10:07:18;;;;;;;1999.90;999.90;;;12.50;99.90;;;;;;5115001;28;20562;-74
2023/10/31 10:09:46;;;;;;;1999.90;999.90;;;12.70;99.90;;;;;;5116599;27;20043;-74
2023/10/31 10:12:16;;;;;;;1999.90;999.90;;;12.70;99.90;;;;;;5116620;27;20032;-74
2023/10/31 10:14:44;;;;;;;1999.90;999.90;;;12.80;99.90;;;;;;5116087;27;20043;-74
2023/10/31 10:17:18;;;;;;;1999.90;999.90;;;12.90;99.90;;;;;;5114503;28;20051;-74
2023/10/31 10:19:44;;;;;;;1999.90;999.90;;;13.00;99.90;;;;;;5115129;28;20428;-74
2023/10/31 10:22:10;;;;;;;1999.90;999.90;;;12.90;99.90;;;;;;5102744;28;20040;-74
2023/10/31 10:24:38;;;;;;;1999.90;999.90;;;12.80;99.90;;;;;;5094133;28;20029;-74
2023/10/31 10:27:04;;;;;;;1999.90;999.90;;;12.80;99.90;;;;;;5095630;28;20114;-74
2023/10/31 10:29:30;;;;;;;1999.90;999.90;;;12.80;99.90;;;;;;5095710;28;20118;-74
2023/10/31 10:31:55;;;;;;;1999.90;999.90;;;12.70;99.90;;;;;;5095841;28;20510;-74
2023/10/31 10:34:21;;;;;;;1999.90;999.90;;;12.80;99.90;;;;;;5096839;28;20032;-73
2023/10/31 10:36:50;;;;;;;1999.90;999.90;;;12.70;99.90;;;;;;5106567;28;20028;-73
2023/10/31 10:39:22;;;;;;;1999.90;999.90;;;12.80;99.90;;;;;;5104443;28;20032;-74
2023/10/31 10:41:57;;;;;;;1999.90;999.90;;;13.00;99.90;;;;;;5096005;28;20490;-73
2023/10/31 10:44:34;;;;;;;1999.90;999.90;;;13.10;99.90;;;;;;5095301;28;20024;-73
2023/10/31 10:47:03;;;;;;;1999.90;999.90;;;13.40;99.90;;;;;;5095521;28;20121;-73
2023/10/31 10:49:32;;;;;;;1999.90;999.90;;;13.50;99.90;;;;;;5094108;28;20032;-73
2023/10/31 10:52:13;;;;;;;1999.90;999.90;;;13.50;99.90;;;;;;5095369;28;20764;-74
2023/10/31 10:54:49;;;;;;;1999.90;999.90;;;13.50;99.90;;;;;;5102837;28;20032;-74
2023/10/31 10:57:28;;;;;;;1999.90;999.90;;;13.70;99.90;;;;;;5116028;28;20086;-74
2023/10/31 10:59:58;;;;;;;1999.90;999.90;;;13.70;99.90;;;;;;5115596;28;20135;-74
2023/10/31 11:02:24;;;;;;;1999.90;999.90;;;13.50;99.90;;;;;;5114519;28;20032;-74
2023/10/31 11:04:51;;;;;;;1999.90;999.90;;;13.50;99.90;;;;;;5115739;28;20478;-74
2023/10/31 11:07:18;;;;;;;1999.90;999.90;;;13.40;99.90;;;;;;5115821;28;20106;-74
2023/10/31 11:09:46;;;;;;;1999.90;999.90;;;13.40;99.90;;;;;;5115651;28;20486;-74
2023/10/31 11:12:12;;;;;;;1999.90;999.90;;;13.30;99.90;;;;;;5114265;28;20127;-74
2023/10/31 11:14:39;;;;;;;1999.90;999.90;;;13.40;99.90;;;;;;5114599;28;20032;-74
2023/10/31 11:17:14;;;;;;;1999.90;999.90;;;13.40;99.90;;;;;;5098105;28;20612;-74
2023/10/31 11:19:40;;;;;;;1999.90;999.90;;;13.40;99.90;;;;;;5111461;27;20028;-74
2023/10/31 11:22:06;;;;;;;1999.90;999.90;;;13.50;99.90;;;;;;5112778;28;20040;-74
2023/10/31 11:24:33;;;;;;;1999.90;999.90;;;13.50;99.90;;;;;;5102947;27;20036;-74
2023/10/31 11:27:01;;;;;;;1999.90;999.90;;;13.60;99.90;;;;;;5093521;28;20474;-74
2023/10/31 11:29:27;;;;;;;1999.90;999.90;;;13.40;99.90;;;;;;5093614;28;20098;-74
2023/10/31 11:31:56;;;;;;;1999.90;999.90;;;13.40;99.90;;;;;;5099419;28;20058;-74
2023/10/31 11:34:22;;;;;;;1999.90;999.90;;;13.50;99.90;;;;;;5103056;27;20063;-73
2023/10/31 11:36:48;;;;;;;1999.90;999.90;;;13.30;99.90;;;;;;5106943;27;20111;-74
2023/10/31 11:39:15;;;;;;;1999.90;999.90;;;13.40;99.90;;;;;;5112837;28;20447;-73
2023/10/31 11:41:49;;;;;;;1999.90;999.90;;;13.20;99.90;;;;;;5094327;28;20029;-73
2023/10/31 11:44:16;;;;;;;1999.90;999.90;;;12.90;99.90;;;;;;5094606;28;20036;-77
2023/10/31 11:46:41;;;;;;;1999.90;999.90;;;13.00;99.90;;;;;;5106434;28;20086;-70
2023/10/31 11:49:07;;;;;;;1999.90;999.90;;;13.00;99.90;;;;;;5097150;28;20068;-71
2023/10/31 11:51:33;;;;;;;1999.90;999.90;;;13.10;99.90;;;;;;5109514;28;20040;-70
2023/10/31 11:54:02;;;;;;;1999.90;999.90;;;13.10;99.90;;;;;;5100081;27;20028;-70
2023/10/31 11:56:28;;;;;;;1999.90;999.90;;;13.20;99.90;;;;;;5113758;27;20039;-71